createdAt,value
2023-02-07T00:01:37.059Z,33.07
2023-02-07T00:04:06.400Z,32.94
2023-02-07T00:06:36.549Z,32.82
2023-02-07T00:09:08.570Z,32.77
2023-02-07T00:11:40.455Z,33.16
2023-02-07T00:14:10.688Z,33.20
2023-02-07T00:16:39.106Z,33.03
2023-02-07T00:19:07.787Z,33.04
2023-02-07T00:21:36.163Z,33.13
2023-02-07T00:24:06.745Z,32.87
2023-02-07T00:26:35.290Z,32.67
2023-02-07T00:29:03.934Z,33.15
2023-02-07T00:31:33.972Z,32.86
2023-02-07T00:34:04.614Z,33.26
2023-02-07T00:36:34.383Z,33.28
2023-02-07T00:39:07.665Z,33.04
2023-02-07T00:41:36.230Z,33.06
2023-02-07T00:44:05.185Z,33.18
2023-02-07T00:46:33.789Z,33.42
2023-02-07T00:49:03.094Z,33.40
2023-02-07T00:51:31.502Z,33.41
2023-02-07T00:54:00.548Z,33.46
2023-02-07T00:56:31.498Z,33.32
2023-02-07T00:59:00.222Z,33.19
2023-02-07T01:01:29.003Z,33.10
2023-02-07T01:03:57.868Z,33.17
2023-02-07T01:06:28.123Z,33.17
2023-02-07T01:08:58.099Z,33.23
2023-02-07T01:11:27.215Z,33.08
2023-02-07T01:13:57.147Z,33.25
2023-02-07T01:16:29.185Z,33.20
2023-02-07T01:18:58.162Z,33.30
2023-02-07T01:21:27.948Z,33.05
2023-02-07T01:23:57.360Z,33.15
2023-02-07T01:26:25.925Z,33.31
2023-02-07T01:28:55.193Z,33.11
2023-02-07T01:31:25.352Z,33.17
2023-02-07T01:33:57.437Z,32.86
2023-02-07T01:36:27.054Z,33.50
2023-02-07T01:38:56.133Z,33.00
2023-02-07T01:41:26.635Z,33.46
2023-02-07T01:43:57.390Z,33.20
2023-02-07T01:46:27.762Z,32.41
2023-02-07T01:48:57.468Z,33.40
2023-02-07T01:51:27.463Z,33.27
2023-02-07T01:53:57.606Z,33.37
2023-02-07T01:56:31.892Z,33.33
2023-02-07T01:59:02.836Z,33.19
2023-02-07T02:01:32.849Z,33.45
2023-02-07T02:04:01.318Z,33.30
2023-02-07T02:06:31.989Z,33.23
2023-02-07T02:09:02.118Z,33.52
2023-02-07T02:11:51.192Z,32.87
2023-02-07T02:14:31.667Z,33.38
2023-02-07T02:17:07.988Z,33.21
2023-02-07T02:19:57.425Z,33.04
2023-02-07T02:22:50.901Z,33.32
2023-02-07T02:25:42.672Z,32.81
2023-02-07T02:28:42.492Z,32.49
2023-02-07T02:31:21.988Z,33.32
2023-02-07T02:33:53.520Z,33.29
2023-02-07T02:36:28.774Z,33.37
2023-02-07T02:39:03.558Z,33.30
2023-02-07T02:41:34.309Z,33.54
2023-02-07T02:44:03.223Z,32.47
2023-02-07T02:46:36.003Z,33.17
2023-02-07T02:49:07.438Z,33.13
2023-02-07T02:51:35.549Z,32.74
2023-02-07T02:54:04.242Z,33.39
2023-02-07T02:56:45.249Z,32.97
2023-02-07T02:59:22.350Z,32.32
2023-02-07T03:01:58.928Z,33.03
2023-02-07T03:04:51.334Z,32.61
2023-02-07T03:07:34.268Z,32.84
2023-02-07T03:10:08.896Z,33.41
2023-02-07T03:12:43.386Z,33.28
2023-02-07T03:15:18.528Z,33.56
2023-02-07T03:17:49.161Z,33.59
2023-02-07T03:20:23.598Z,33.69
2023-02-07T03:22:53.074Z,33.74
2023-02-07T03:25:22.621Z,33.88
2023-02-07T03:27:51.182Z,33.82
2023-02-07T03:30:22.344Z,33.94
2023-02-07T03:32:52.932Z,33.60
2023-02-07T03:35:25.761Z,33.94
2023-02-07T03:37:56.629Z,33.73
2023-02-07T03:40:25.233Z,32.93
2023-02-07T03:42:56.424Z,33.71
2023-02-07T03:45:25.486Z,33.83
2023-02-07T03:47:53.854Z,34.00
2023-02-07T03:50:24.594Z,33.91
2023-02-07T03:52:52.788Z,33.87
2023-02-07T03:55:21.548Z,33.80
2023-02-07T03:57:49.788Z,34.10
2023-02-07T04:00:18.747Z,34.08
2023-02-07T04:02:47.227Z,34.10
2023-02-07T04:05:15.841Z,33.99
2023-02-07T04:07:46.134Z,34.34
2023-02-07T04:10:14.844Z,34.34
2023-02-07T04:12:43.282Z,34.01
2023-02-07T04:15:12.954Z,33.91
2023-02-07T04:17:41.271Z,33.97
2023-02-07T04:20:12.680Z,34.26
2023-02-07T04:22:40.951Z,34.43
2023-02-07T04:25:11.138Z,34.24
2023-02-07T04:27:39.467Z,34.22
2023-02-07T04:30:09.093Z,34.10
2023-02-07T04:32:37.918Z,34.50
2023-02-07T04:35:06.995Z,34.25
2023-02-07T04:37:35.464Z,34.56
2023-02-07T04:40:04.382Z,34.34
2023-02-07T04:42:34.123Z,34.39
2023-02-07T04:45:03.018Z,34.45
2023-02-07T04:47:31.498Z,34.52
2023-02-07T04:50:00.238Z,34.79
2023-02-07T04:52:28.612Z,34.90
2023-02-07T04:54:57.311Z,34.54
2023-02-07T04:57:25.654Z,34.51
2023-02-07T04:59:55.460Z,34.82
2023-02-07T05:02:24.430Z,34.78
2023-02-07T05:04:53.015Z,34.84
2023-02-07T05:07:21.610Z,34.72
2023-02-07T05:09:50.159Z,34.56
2023-02-07T05:12:18.402Z,34.93
2023-02-07T05:14:47.020Z,34.61
2023-02-07T05:17:16.873Z,34.81
2023-02-07T05:19:45.501Z,34.99
2023-02-07T05:22:13.792Z,34.65
2023-02-07T05:24:42.333Z,34.96
2023-02-07T05:27:10.714Z,34.80
2023-02-07T05:29:39.401Z,35.12
2023-02-07T05:32:25.446Z,34.93
2023-02-07T05:34:55.422Z,34.95
2023-02-07T05:37:23.847Z,35.32
2023-02-07T05:39:52.553Z,34.70
2023-02-07T05:42:20.851Z,34.99
2023-02-07T05:44:49.773Z,35.15
2023-02-07T05:47:18.142Z,34.59
2023-02-07T05:49:46.908Z,34.55
2023-02-07T05:52:16.555Z,34.33
2023-02-07T05:54:45.192Z,34.33
2023-02-07T05:57:13.481Z,34.25
2023-02-07T05:59:42.041Z,34.11
2023-02-07T06:02:10.502Z,34.13
2023-02-07T06:04:39.238Z,33.57
2023-02-07T06:07:07.491Z,33.67
2023-02-07T06:09:37.618Z,33.39
2023-02-07T06:12:06.492Z,33.54
2023-02-07T06:14:35.442Z,33.08
2023-02-07T06:17:03.756Z,33.23
2023-02-07T06:19:32.307Z,32.99
2023-02-07T06:22:01.020Z,33.22
2023-02-07T06:24:29.535Z,32.73
2023-02-07T06:26:59.493Z,32.39
2023-02-07T06:29:28.249Z,32.75
2023-02-07T06:31:56.845Z,32.47
2023-02-07T06:34:25.810Z,32.87
2023-02-07T06:36:54.180Z,32.46
2023-02-07T06:39:22.993Z,32.80
2023-02-07T06:41:51.374Z,32.42
2023-02-07T06:44:21.204Z,32.25
2023-02-07T06:46:49.507Z,31.98
2023-02-07T06:49:18.029Z,32.08
2023-02-07T06:51:46.473Z,32.34
2023-02-07T06:54:15.040Z,31.89
2023-02-07T06:56:43.281Z,31.91
2023-02-07T06:59:12.096Z,32.04
2023-02-07T07:01:42.319Z,31.81
2023-02-07T07:04:11.136Z,31.89
2023-02-07T07:06:39.709Z,31.65
2023-02-07T07:09:08.455Z,31.97
2023-02-07T07:11:39.186Z,31.89
2023-02-07T07:14:07.695Z,31.78
2023-02-07T07:16:35.990Z,31.83
2023-02-07T07:19:05.988Z,31.61
2023-02-07T07:21:34.316Z,31.55
2023-02-07T07:24:02.804Z,31.79
2023-02-07T07:26:46.597Z,31.44
2023-02-07T07:29:17.228Z,31.28
2023-02-07T07:31:45.706Z,31.32
2023-02-07T07:34:16.093Z,31.03
2023-02-07T07:36:44.583Z,31.44
2023-02-07T07:39:14.764Z,31.20
2023-02-07T07:41:42.983Z,31.46
2023-02-07T07:44:11.797Z,31.34
2023-02-07T07:46:40.209Z,31.00
2023-02-07T07:49:09.062Z,30.86
2023-02-07T07:51:39.654Z,30.78
2023-02-07T07:54:08.504Z,30.56
2023-02-07T07:56:36.774Z,30.97
2023-02-07T07:59:05.927Z,30.64
2023-02-07T08:01:37.030Z,30.40
2023-02-07T08:04:06.462Z,30.53
2023-02-07T08:06:34.738Z,30.67
2023-02-07T08:09:05.383Z,30.41
2023-02-07T08:11:33.837Z,30.59
2023-02-07T08:14:02.457Z,30.37
2023-02-07T08:16:30.920Z,30.36
2023-02-07T08:18:59.527Z,30.46
2023-02-07T08:21:28.083Z,30.38
2023-02-07T08:23:56.707Z,30.21
2023-02-07T08:26:26.529Z,30.29
2023-02-07T08:28:55.269Z,30.26
2023-02-07T08:31:23.675Z,30.27
2023-02-07T08:33:52.548Z,30.18
2023-02-07T08:36:20.989Z,30.19
2023-02-07T08:38:49.497Z,29.83
2023-02-07T08:41:17.921Z,29.94
2023-02-07T08:43:48.094Z,29.60
2023-02-07T08:46:16.621Z,29.57
2023-02-07T08:48:45.288Z,29.37
2023-02-07T08:51:13.669Z,29.40
2023-02-07T08:53:42.240Z,29.28
2023-02-07T08:56:11.155Z,28.91
2023-02-07T08:58:41.102Z,28.94
2023-02-07T09:01:11.665Z,29.04
2023-02-07T09:03:40.522Z,29.21
2023-02-07T09:06:10.721Z,29.13
2023-02-07T09:08:39.516Z,29.19
2023-02-07T09:11:09.447Z,29.28
2023-02-07T09:13:38.608Z,29.03
2023-02-07T09:16:07.175Z,29.06
2023-02-07T09:18:37.195Z,28.93
2023-02-07T09:21:06.218Z,29.01
2023-02-07T09:23:35.934Z,29.09
2023-02-07T09:26:06.669Z,29.01
2023-02-07T09:28:36.335Z,28.97
2023-02-07T09:31:09.956Z,28.89
2023-02-07T09:33:40.332Z,28.95
2023-02-07T09:36:19.361Z,28.49
2023-02-07T09:38:49.190Z,29.04
2023-02-07T09:41:23.339Z,28.73
2023-02-07T09:44:01.208Z,28.44
2023-02-07T09:46:33.070Z,28.59
2023-02-07T09:49:06.386Z,28.56
2023-02-07T09:51:35.899Z,28.70
2023-02-07T09:54:07.163Z,28.63
2023-02-07T09:56:37.294Z,28.50
2023-02-07T09:59:07.834Z,28.54
2023-02-07T10:01:38.292Z,28.83
2023-02-07T10:04:23.499Z,28.22
2023-02-07T10:06:55.272Z,28.62
2023-02-07T10:09:28.282Z,28.46
2023-02-07T10:12:02.285Z,28.27
2023-02-07T10:14:57.990Z,28.07
2023-02-07T10:17:38.555Z,28.32
2023-02-07T10:20:26.530Z,28.31
2023-02-07T10:23:00.940Z,28.48
2023-02-07T10:25:37.193Z,28.49
2023-02-07T10:28:24.838Z,28.23
2023-02-07T10:30:55.849Z,28.50
2023-02-07T10:33:28.612Z,28.23
2023-02-07T10:35:59.047Z,28.36
2023-02-07T10:38:32.495Z,28.04
2023-02-07T10:41:04.861Z,27.76
2023-02-07T10:43:35.506Z,28.10
2023-02-07T10:46:07.094Z,27.98
2023-02-07T10:48:35.442Z,27.18
2023-02-07T10:51:12.712Z,27.67
2023-02-07T10:53:54.530Z,27.69
2023-02-07T10:56:26.222Z,27.94
2023-02-07T10:58:55.345Z,28.02
2023-02-07T11:01:26.291Z,28.04
2023-02-07T11:03:55.464Z,28.57
2023-02-07T11:06:29.709Z,28.16
2023-02-07T11:09:21.103Z,27.91
2023-02-07T11:11:51.150Z,28.40
2023-02-07T11:14:26.674Z,28.45
2023-02-07T11:16:56.247Z,28.61
2023-02-07T11:19:27.033Z,28.29
2023-02-07T11:22:08.922Z,28.59
2023-02-07T11:24:38.767Z,28.75
2023-02-07T11:27:09.652Z,28.75
2023-02-07T11:29:45.760Z,28.58
2023-02-07T11:32:15.338Z,28.72
2023-02-07T11:34:49.542Z,28.36
2023-02-07T11:37:26.070Z,28.54
2023-02-07T11:39:56.659Z,28.77
2023-02-07T11:42:27.901Z,28.59
2023-02-07T11:44:56.464Z,29.18
2023-02-07T11:47:28.170Z,29.03
2023-02-07T11:49:58.503Z,28.98
2023-02-07T11:52:29.526Z,29.27
2023-02-07T11:54:59.544Z,29.38
2023-02-07T11:57:29.960Z,29.29
2023-02-07T12:00:08.147Z,28.97
2023-02-07T12:02:37.083Z,29.20
2023-02-07T12:05:15.419Z,28.84
2023-02-07T12:07:48.892Z,29.28
2023-02-07T12:10:22.985Z,29.50
2023-02-07T12:12:56.264Z,29.14
2023-02-07T12:15:28.915Z,29.32
2023-02-07T12:18:00.678Z,29.45
2023-02-07T12:20:31.596Z,29.23
2023-02-07T12:23:31.412Z,29.03
2023-02-07T12:25:56.229Z,29.19
2023-02-07T12:28:29.634Z,29.09
2023-02-07T12:31:04.036Z,29.24
2023-02-07T12:33:41.590Z,29.30
2023-02-07T12:36:13.954Z,29.29
2023-02-07T12:38:49.016Z,29.26
2023-02-07T12:41:21.334Z,29.58
2023-02-07T12:43:55.039Z,29.50
2023-02-07T12:46:29.896Z,29.58
2023-02-07T12:49:14.786Z,29.39
2023-02-07T12:51:53.379Z,29.67
2023-02-07T12:54:30.824Z,29.51
2023-02-07T12:57:02.503Z,29.41
2023-02-07T12:59:41.329Z,28.92
2023-02-07T13:02:25.494Z,28.62
2023-02-07T13:05:07.494Z,28.71
2023-02-07T13:07:43.235Z,28.93
2023-02-07T13:10:21.672Z,29.05
2023-02-07T13:12:55.435Z,29.21
2023-02-07T13:15:29.665Z,28.83
2023-02-07T13:18:05.106Z,28.61
2023-02-07T13:20:42.083Z,28.60
2023-02-07T13:23:16.286Z,28.31
2023-02-07T13:25:47.911Z,28.57
2023-02-07T13:28:20.894Z,28.16
2023-02-07T13:30:50.280Z,28.32
2023-02-07T13:33:29.898Z,27.97
2023-02-07T13:36:01.568Z,28.24
2023-02-07T13:38:40.991Z,28.11
2023-02-07T13:41:13.382Z,28.18
2023-02-07T13:44:01.635Z,27.86
2023-02-07T13:46:59.578Z,27.88
2023-02-07T13:49:50.295Z,28.25
2023-02-07T13:52:31.196Z,28.44
2023-02-07T13:55:06.918Z,28.59
2023-02-07T13:58:01.681Z,28.35
2023-02-07T14:00:32.570Z,28.84
2023-02-07T14:03:03.675Z,28.84
2023-02-07T14:05:34.150Z,28.59
2023-02-07T14:08:05.506Z,28.47
2023-02-07T14:10:48.159Z,27.97
2023-02-07T14:13:33.156Z,28.10
2023-02-07T14:16:08.025Z,28.50
2023-02-07T14:18:43.574Z,27.94
2023-02-07T14:21:34.488Z,27.36
2023-02-07T14:24:19.751Z,27.69
2023-02-07T14:27:01.175Z,27.87
2023-02-07T14:29:43.608Z,27.92
2023-02-07T14:32:29.947Z,28.32
2023-02-07T14:35:04.772Z,28.94
2023-02-07T14:37:42.208Z,28.80
2023-02-07T14:40:21.478Z,28.87
2023-02-07T14:42:59.776Z,28.62
2023-02-07T14:45:32.287Z,28.90
2023-02-07T14:48:01.012Z,29.56
2023-02-07T14:50:33.615Z,29.28
2023-02-07T14:53:04.785Z,29.33
2023-02-07T14:55:34.511Z,28.46
2023-02-07T14:58:05.019Z,29.37
2023-02-07T15:00:39.085Z,29.30
2023-02-07T15:03:13.962Z,29.32
2023-02-07T15:05:51.352Z,29.32
2023-02-07T15:08:21.297Z,29.84
2023-02-07T15:10:55.820Z,29.52
2023-02-07T15:13:27.515Z,29.82
2023-02-07T15:16:00.247Z,29.65
2023-02-07T15:18:30.808Z,29.61
2023-02-07T15:20:59.938Z,29.74
2023-02-07T15:23:29.910Z,29.80
2023-02-07T15:26:00.550Z,29.83
2023-02-07T15:28:30.512Z,29.73
2023-02-07T15:31:03.245Z,29.47
2023-02-07T15:33:36.970Z,29.90
2023-02-07T15:36:07.152Z,29.77
2023-02-07T15:38:35.621Z,29.92
2023-02-07T15:41:04.881Z,30.18
2023-02-07T15:43:34.885Z,30.05
2023-02-07T15:46:10.319Z,29.62
2023-02-07T15:48:49.828Z,29.48
2023-02-07T15:51:20.056Z,29.73
2023-02-07T15:53:51.449Z,29.61
2023-02-07T15:56:20.306Z,29.72
2023-02-07T15:58:49.761Z,29.35
2023-02-07T16:01:25.070Z,29.24
2023-02-07T16:03:56.216Z,29.55
2023-02-07T16:06:26.820Z,29.57
2023-02-07T16:08:57.354Z,29.78
2023-02-07T16:11:38.166Z,29.28
2023-02-07T16:14:18.477Z,29.31
2023-02-07T16:16:51.566Z,29.52
2023-02-07T16:19:21.841Z,29.92
2023-02-07T16:22:01.364Z,30.04
2023-02-07T16:24:29.670Z,30.33
2023-02-07T16:26:59.334Z,30.24
2023-02-07T16:29:28.281Z,30.28
2023-02-07T16:31:58.477Z,30.21
2023-02-07T16:34:26.836Z,30.41
2023-02-07T16:36:57.384Z,30.40
2023-02-07T16:39:25.668Z,30.38
2023-02-07T16:41:56.931Z,30.32
2023-02-07T16:44:26.426Z,30.49
2023-02-07T16:46:55.435Z,30.38
2023-02-07T16:49:27.075Z,30.23
2023-02-07T16:51:55.811Z,30.48
2023-02-07T16:54:24.132Z,30.51
2023-02-07T16:56:56.168Z,30.57
2023-02-07T16:59:27.217Z,30.56
2023-02-07T17:01:56.134Z,30.59
2023-02-07T17:04:26.117Z,30.45
2023-02-07T17:06:55.040Z,30.78
2023-02-07T17:09:24.655Z,30.73
2023-02-07T17:11:54.132Z,30.60
2023-02-07T17:14:23.043Z,30.82
2023-02-07T17:16:51.849Z,30.60
2023-02-07T17:19:24.093Z,30.51
2023-02-07T17:21:54.654Z,30.40
2023-02-07T17:24:23.081Z,30.60
2023-02-07T17:26:54.226Z,30.52
2023-02-07T17:29:22.712Z,30.75
2023-02-07T17:31:51.890Z,30.60
2023-02-07T17:34:20.374Z,30.43
2023-02-07T17:36:50.990Z,30.57
2023-02-07T17:39:20.956Z,30.49
2023-02-07T17:41:49.968Z,30.58
2023-02-07T17:44:21.485Z,30.45
2023-02-07T17:46:50.341Z,30.53
2023-02-07T17:49:19.097Z,30.89
2023-02-07T17:51:47.749Z,30.79
2023-02-07T17:54:16.205Z,30.75
2023-02-07T17:56:46.362Z,30.85
2023-02-07T17:59:23.980Z,30.54
2023-02-07T18:01:53.388Z,30.96
2023-02-07T18:04:21.983Z,30.97
2023-02-07T18:06:50.697Z,30.71
2023-02-07T18:09:20.351Z,30.76
2023-02-07T18:11:50.673Z,30.70
2023-02-07T18:14:18.997Z,30.80
2023-02-07T18:16:47.815Z,31.09
2023-02-07T18:19:17.764Z,30.79
2023-02-07T18:21:46.802Z,30.81
2023-02-07T18:24:15.586Z,30.90
2023-02-07T18:26:46.588Z,31.10
2023-02-07T18:29:17.141Z,31.00
2023-02-07T18:31:46.522Z,31.01
2023-02-07T18:34:14.855Z,30.82
2023-02-07T18:36:43.396Z,30.78
2023-02-07T18:39:12.422Z,30.75
2023-02-07T18:41:41.213Z,30.83
2023-02-07T18:44:09.636Z,30.81
2023-02-07T18:46:40.252Z,30.67
2023-02-07T18:49:08.837Z,30.75
2023-02-07T18:51:38.968Z,30.93
2023-02-07T18:54:07.569Z,30.82
2023-02-07T18:56:37.345Z,31.12
2023-02-07T18:59:06.046Z,31.16
2023-02-07T19:01:35.446Z,31.09
2023-02-07T19:04:05.751Z,30.78
2023-02-07T19:06:35.093Z,30.77
2023-02-07T19:09:03.588Z,30.84
2023-02-07T19:11:32.318Z,30.70
2023-02-07T19:14:00.666Z,30.68
2023-02-07T19:16:29.664Z,30.58
2023-02-07T19:19:02.226Z,30.53
2023-02-07T19:21:32.569Z,30.50
2023-02-07T19:24:05.664Z,30.21
2023-02-07T19:26:34.393Z,30.24
2023-02-07T19:29:05.373Z,30.54
2023-02-07T19:31:34.877Z,30.50
2023-02-07T19:34:03.403Z,30.58
2023-02-07T19:36:33.749Z,30.36
2023-02-07T19:39:02.418Z,30.70
2023-02-07T19:41:31.222Z,30.51
2023-02-07T19:43:59.743Z,30.39
2023-02-07T19:46:28.888Z,30.52
2023-02-07T19:48:57.173Z,30.38
2023-02-07T19:51:28.302Z,30.36
2023-02-07T19:53:58.191Z,30.54
2023-02-07T19:56:28.852Z,30.64
2023-02-07T19:58:57.043Z,30.56
2023-02-07T20:01:26.436Z,30.63
2023-02-07T20:03:55.833Z,30.61
2023-02-07T20:06:29.179Z,30.69
2023-02-07T20:08:59.778Z,30.72
2023-02-07T20:11:28.911Z,30.70
2023-02-07T20:14:03.279Z,30.56
2023-02-07T20:16:34.415Z,30.62
2023-02-07T20:19:05.582Z,30.92
2023-02-07T20:21:35.783Z,30.73
2023-02-07T20:24:06.604Z,30.59
2023-02-07T20:26:37.694Z,30.58
2023-02-07T20:29:09.564Z,30.66
2023-02-07T20:31:39.197Z,30.64
2023-02-07T20:34:07.981Z,30.94
2023-02-07T20:36:40.925Z,30.89
2023-02-07T20:39:12.750Z,30.52
2023-02-07T20:41:43.415Z,30.87
2023-02-07T20:44:13.876Z,30.67
2023-02-07T20:46:43.919Z,30.56
2023-02-07T20:49:14.578Z,30.78
2023-02-07T20:51:44.084Z,30.70
2023-02-07T20:54:13.911Z,30.75
2023-02-07T20:56:42.897Z,30.95
2023-02-07T20:59:15.660Z,30.38
2023-02-07T21:01:44.469Z,30.48
2023-02-07T21:04:12.897Z,30.67
2023-02-07T21:06:42.772Z,30.88
2023-02-07T21:09:11.967Z,30.97
2023-02-07T21:11:45.207Z,30.70
2023-02-07T21:14:15.625Z,30.90
2023-02-07T21:16:44.224Z,30.66
2023-02-07T21:19:12.637Z,30.75
2023-02-07T21:21:41.182Z,30.68
2023-02-07T21:24:09.616Z,30.57
2023-02-07T21:26:38.111Z,30.57
2023-02-07T21:29:08.222Z,30.56
2023-02-07T21:31:37.038Z,30.50
2023-02-07T21:34:05.475Z,30.56
2023-02-07T21:36:37.624Z,30.43
2023-02-07T21:39:09.259Z,30.46
2023-02-07T21:41:39.282Z,30.50
2023-02-07T21:44:09.107Z,30.39
2023-02-07T21:46:39.586Z,30.40
2023-02-07T21:49:10.330Z,30.34
2023-02-07T21:51:38.854Z,30.36
2023-02-07T21:54:08.060Z,30.57
2023-02-07T21:56:38.319Z,30.41
2023-02-07T21:59:09.639Z,30.13
2023-02-07T22:01:38.352Z,30.21
2023-02-07T22:04:10.385Z,30.09
2023-02-07T22:06:42.163Z,30.46
2023-02-07T22:09:12.585Z,30.25
2023-02-07T22:11:41.497Z,30.21
2023-02-07T22:14:12.504Z,30.06
2023-02-07T22:16:40.995Z,29.26
2023-02-07T22:19:11.558Z,30.18
2023-02-07T22:21:40.627Z,30.14
2023-02-07T22:24:09.640Z,30.22
2023-02-07T22:26:38.114Z,30.25
2023-02-07T22:29:07.865Z,30.52
2023-02-07T22:31:39.147Z,30.38
2023-02-07T22:34:09.221Z,30.55
2023-02-07T22:36:39.439Z,30.83
2023-02-07T22:39:09.094Z,30.88
2023-02-07T22:41:37.783Z,30.68
2023-02-07T22:44:06.518Z,30.71
2023-02-07T22:46:35.134Z,30.45
2023-02-07T22:49:05.021Z,30.53
2023-02-07T22:51:35.777Z,30.75
2023-02-07T22:54:06.648Z,30.89
2023-02-07T22:56:36.586Z,30.87
2023-02-07T22:59:05.714Z,31.02
2023-02-07T23:01:36.695Z,31.23
2023-02-07T23:04:08.477Z,30.59
2023-02-07T23:06:37.477Z,30.99
2023-02-07T23:09:06.524Z,31.07
2023-02-07T23:11:35.446Z,31.31
2023-02-07T23:14:06.980Z,31.39
2023-02-07T23:16:36.630Z,31.40
2023-02-07T23:19:08.370Z,31.29
2023-02-07T23:21:37.047Z,31.59
2023-02-07T23:24:05.823Z,31.73
2023-02-07T23:26:35.541Z,31.78
2023-02-07T23:29:03.829Z,31.83
2023-02-07T23:31:32.522Z,31.76
2023-02-07T23:34:01.192Z,31.64
2023-02-07T23:36:31.206Z,31.67
2023-02-07T23:38:59.665Z,31.60
2023-02-07T23:41:28.450Z,31.57
2023-02-07T23:43:57.142Z,31.56
2023-02-07T23:46:25.844Z,31.44
2023-02-07T23:48:54.263Z,31.62
2023-02-07T23:51:23.112Z,31.52
2023-02-07T23:53:52.905Z,31.45
2023-02-07T23:56:22.923Z,31.38
2023-02-07T23:58:52.610Z,31.32
